sensor_id;sensor_type;location;lat;lon;timestamp;P1;durP1;ratioP1;P2;durP2;ratioP2
46334;SDS011;32051;48.882;9.210;2024-03-07T00:02:17;39.22;;;19.92;;
46334;SDS011;32051;48.882;9.210;2024-03-07T00:04:43;39.30;;;22.60;;
46334;SDS011;32051;48.882;9.210;2024-03-07T00:07:10;38.33;;;22.05;;
46334;SDS011;32051;48.882;9.210;2024-03-07T00:09:36;37.65;;;21.95;;
46334;SDS011;32051;48.882;9.210;2024-03-07T00:12:02;32.90;;;20.63;;
46334;SDS011;32051;48.882;9.210;2024-03-07T00:14:29;35.53;;;21.45;;
46334;SDS011;32051;48.882;9.210;2024-03-07T00:16:55;33.80;;;21.75;;
46334;SDS011;32051;48.882;9.210;2024-03-07T00:19:27;39.53;;;24.10;;
46334;SDS011;32051;48.882;9.210;2024-03-07T00:21:56;41.40;;;23.52;;
46334;SDS011;32051;48.882;9.210;2024-03-07T00:24:23;43.30;;;25.63;;
46334;SDS011;32051;48.882;9.210;2024-03-07T00:26:49;36.35;;;23.63;;
46334;SDS011;32051;48.882;9.210;2024-03-07T00:29:16;42.35;;;24.98;;
46334;SDS011;32051;48.882;9.210;2024-03-07T00:31:46;39.97;;;24.92;;
46334;SDS011;32051;48.882;9.210;2024-03-07T00:34:12;36.83;;;24.55;;
46334;SDS011;32051;48.882;9.210;2024-03-07T00:36:42;39.90;;;25.33;;
46334;SDS011;32051;48.882;9.210;2024-03-07T00:39:08;40.03;;;24.48;;
46334;SDS011;32051;48.882;9.210;2024-03-07T00:41:37;37.63;;;24.58;;
46334;SDS011;32051;48.882;9.210;2024-03-07T00:44:04;39.28;;;25.15;;
46334;SDS011;32051;48.882;9.210;2024-03-07T00:46:30;39.75;;;25.20;;
46334;SDS011;32051;48.882;9.210;2024-03-07T00:48:56;39.00;;;24.80;;
46334;SDS011;32051;48.882;9.210;2024-03-07T00:51:22;48.92;;;25.77;;
46334;SDS011;32051;48.882;9.210;2024-03-07T00:53:48;43.83;;;24.48;;
46334;SDS011;32051;48.882;9.210;2024-03-07T00:56:14;42.45;;;26.10;;
46334;SDS011;32051;48.882;9.210;2024-03-07T00:58:40;37.65;;;25.42;;
46334;SDS011;32051;48.882;9.210;2024-03-07T01:01:06;42.15;;;27.73;;
46334;SDS011;32051;48.882;9.210;2024-03-07T01:03:32;52.80;;;26.13;;
46334;SDS011;32051;48.882;9.210;2024-03-07T01:05:58;42.63;;;26.58;;
46334;SDS011;32051;48.882;9.210;2024-03-07T01:08:24;44.33;;;26.58;;
46334;SDS011;32051;48.882;9.210;2024-03-07T01:10:50;38.78;;;25.33;;
46334;SDS011;32051;48.882;9.210;2024-03-07T01:13:18;43.50;;;26.95;;
46334;SDS011;32051;48.882;9.210;2024-03-07T01:15:47;44.15;;;27.42;;
46334;SDS011;32051;48.882;9.210;2024-03-07T01:18:14;45.08;;;27.13;;
46334;SDS011;32051;48.882;9.210;2024-03-07T01:20:40;55.03;;;29.52;;
46334;SDS011;32051;48.882;9.210;2024-03-07T01:23:06;48.88;;;29.77;;
46334;SDS011;32051;48.882;9.210;2024-03-07T01:25:33;46.25;;;28.90;;
46334;SDS011;32051;48.882;9.210;2024-03-07T01:27:59;42.75;;;27.63;;
46334;SDS011;32051;48.882;9.210;2024-03-07T01:30:25;44.65;;;27.65;;
46334;SDS011;32051;48.882;9.210;2024-03-07T01:32:54;49.30;;;29.92;;
46334;SDS011;32051;48.882;9.210;2024-03-07T01:35:20;48.33;;;28.27;;
46334;SDS011;32051;48.882;9.210;2024-03-07T01:37:46;51.05;;;28.77;;
46334;SDS011;32051;48.882;9.210;2024-03-07T01:40:12;44.78;;;29.98;;
46334;SDS011;32051;48.882;9.210;2024-03-07T01:42:39;50.35;;;29.02;;
46334;SDS011;32051;48.882;9.210;2024-03-07T01:45:05;56.90;;;32.53;;
46334;SDS011;32051;48.882;9.210;2024-03-07T01:47:35;49.35;;;30.05;;
46334;SDS011;32051;48.882;9.210;2024-03-07T01:50:04;51.15;;;30.23;;
46334;SDS011;32051;48.882;9.210;2024-03-07T01:52:30;46.83;;;29.75;;
46334;SDS011;32051;48.882;9.210;2024-03-07T01:54:56;50.33;;;30.15;;
46334;SDS011;32051;48.882;9.210;2024-03-07T01:57:23;53.03;;;30.08;;
46334;SDS011;32051;48.882;9.210;2024-03-07T01:59:49;53.70;;;30.73;;
46334;SDS011;32051;48.882;9.210;2024-03-07T02:02:16;53.20;;;30.85;;
46334;SDS011;32051;48.882;9.210;2024-03-07T02:04:45;55.17;;;32.15;;
46334;SDS011;32051;48.882;9.210;2024-03-07T02:07:11;47.60;;;32.13;;
46334;SDS011;32051;48.882;9.210;2024-03-07T02:09:37;54.22;;;31.52;;
46334;SDS011;32051;48.882;9.210;2024-03-07T02:12:04;61.85;;;32.83;;
46334;SDS011;32051;48.882;9.210;2024-03-07T02:14:30;49.20;;;31.75;;
46334;SDS011;32051;48.882;9.210;2024-03-07T02:16:56;55.40;;;30.60;;
46334;SDS011;32051;48.882;9.210;2024-03-07T02:19:22;51.33;;;31.13;;
46334;SDS011;32051;48.882;9.210;2024-03-07T02:21:49;56.88;;;31.40;;
46334;SDS011;32051;48.882;9.210;2024-03-07T02:24:15;56.60;;;32.53;;
46334;SDS011;32051;48.882;9.210;2024-03-07T02:26:41;53.70;;;32.97;;
46334;SDS011;32051;48.882;9.210;2024-03-07T02:29:08;55.88;;;32.33;;
46334;SDS011;32051;48.882;9.210;2024-03-07T02:31:35;53.67;;;31.08;;
46334;SDS011;32051;48.882;9.210;2024-03-07T02:34:05;54.25;;;31.25;;
46334;SDS011;32051;48.882;9.210;2024-03-07T02:36:32;56.38;;;31.05;;
46334;SDS011;32051;48.882;9.210;2024-03-07T02:38:59;58.60;;;32.47;;
46334;SDS011;32051;48.882;9.210;2024-03-07T02:41:25;49.38;;;31.05;;
46334;SDS011;32051;48.882;9.210;2024-03-07T02:43:51;53.25;;;31.88;;
46334;SDS011;32051;48.882;9.210;2024-03-07T02:46:18;51.35;;;31.48;;
46334;SDS011;32051;48.882;9.210;2024-03-07T02:48:44;51.10;;;30.67;;
46334;SDS011;32051;48.882;9.210;2024-03-07T02:51:10;52.00;;;31.17;;
46334;SDS011;32051;48.882;9.210;2024-03-07T02:53:36;47.85;;;32.15;;
46334;SDS011;32051;48.882;9.210;2024-03-07T02:56:04;58.55;;;35.05;;
46334;SDS011;32051;48.882;9.210;2024-03-07T02:58:34;56.92;;;32.80;;
46334;SDS011;32051;48.882;9.210;2024-03-07T03:01:01;64.53;;;33.70;;
46334;SDS011;32051;48.882;9.210;2024-03-07T03:03:30;54.55;;;34.05;;
46334;SDS011;32051;48.882;9.210;2024-03-07T03:05:57;60.25;;;32.10;;
46334;SDS011;32051;48.882;9.210;2024-03-07T03:08:23;57.55;;;32.08;;
46334;SDS011;32051;48.882;9.210;2024-03-07T03:10:50;64.32;;;34.67;;
46334;SDS011;32051;48.882;9.210;2024-03-07T03:13:19;59.95;;;33.22;;
46334;SDS011;32051;48.882;9.210;2024-03-07T03:15:45;56.10;;;31.70;;
46334;SDS011;32051;48.882;9.210;2024-03-07T03:18:12;56.63;;;32.35;;
46334;SDS011;32051;48.882;9.210;2024-03-07T03:20:38;56.83;;;32.88;;
46334;SDS011;32051;48.882;9.210;2024-03-07T03:23:05;55.55;;;33.58;;
46334;SDS011;32051;48.882;9.210;2024-03-07T03:25:31;61.47;;;34.47;;
46334;SDS011;32051;48.882;9.210;2024-03-07T03:28:01;61.20;;;35.78;;
46334;SDS011;32051;48.882;9.210;2024-03-07T03:30:28;51.40;;;31.63;;
46334;SDS011;32051;48.882;9.210;2024-03-07T03:32:55;56.67;;;31.08;;
46334;SDS011;32051;48.882;9.210;2024-03-07T03:35:21;53.17;;;32.30;;
46334;SDS011;32051;48.882;9.210;2024-03-07T03:37:47;59.03;;;32.50;;
46334;SDS011;32051;48.882;9.210;2024-03-07T03:40:13;53.20;;;32.17;;
46334;SDS011;32051;48.882;9.210;2024-03-07T03:42:40;57.53;;;33.10;;
46334;SDS011;32051;48.882;9.210;2024-03-07T03:45:06;60.75;;;32.50;;
46334;SDS011;32051;48.882;9.210;2024-03-07T03:47:36;53.88;;;33.88;;
46334;SDS011;32051;48.882;9.210;2024-03-07T03:50:05;55.72;;;33.28;;
46334;SDS011;32051;48.882;9.210;2024-03-07T03:52:32;52.58;;;31.92;;
46334;SDS011;32051;48.882;9.210;2024-03-07T03:55:00;59.92;;;32.50;;
46334;SDS011;32051;48.882;9.210;2024-03-07T03:57:27;67.75;;;34.83;;
46334;SDS011;32051;48.882;9.210;2024-03-07T03:59:53;53.83;;;32.75;;
46334;SDS011;32051;48.882;9.210;2024-03-07T04:02:20;52.00;;;32.25;;
46334;SDS011;32051;48.882;9.210;2024-03-07T04:04:47;58.15;;;31.98;;
46334;SDS011;32051;48.882;9.210;2024-03-07T04:07:13;61.92;;;33.28;;
46334;SDS011;32051;48.882;9.210;2024-03-07T04:09:41;65.55;;;33.10;;
46334;SDS011;32051;48.882;9.210;2024-03-07T04:12:07;51.22;;;30.95;;
46334;SDS011;32051;48.882;9.210;2024-03-07T04:14:45;60.45;;;32.58;;
46334;SDS011;32051;48.882;9.210;2024-03-07T04:17:11;55.97;;;31.52;;
46334;SDS011;32051;48.882;9.210;2024-03-07T04:19:38;55.45;;;30.17;;
46334;SDS011;32051;48.882;9.210;2024-03-07T04:22:04;53.85;;;29.05;;
46334;SDS011;32051;48.882;9.210;2024-03-07T04:24:30;50.85;;;30.05;;
46334;SDS011;32051;48.882;9.210;2024-03-07T04:27:01;59.28;;;31.42;;
46334;SDS011;32051;48.882;9.210;2024-03-07T04:29:32;48.83;;;30.42;;
46334;SDS011;32051;48.882;9.210;2024-03-07T04:31:58;59.03;;;31.25;;
46334;SDS011;32051;48.882;9.210;2024-03-07T04:34:26;54.92;;;31.58;;
46334;SDS011;32051;48.882;9.210;2024-03-07T04:36:53;53.58;;;30.08;;
46334;SDS011;32051;48.882;9.210;2024-03-07T04:39:19;52.85;;;31.50;;
46334;SDS011;32051;48.882;9.210;2024-03-07T04:42:00;57.08;;;31.13;;
46334;SDS011;32051;48.882;9.210;2024-03-07T04:44:27;50.63;;;29.25;;
46334;SDS011;32051;48.882;9.210;2024-03-07T04:46:53;60.08;;;31.02;;
46334;SDS011;32051;48.882;9.210;2024-03-07T04:49:23;51.22;;;30.13;;
46334;SDS011;32051;48.882;9.210;2024-03-07T04:51:50;50.75;;;29.30;;
46334;SDS011;32051;48.882;9.210;2024-03-07T04:54:17;46.55;;;29.33;;
46334;SDS011;32051;48.882;9.210;2024-03-07T04:56:44;45.03;;;28.13;;
46334;SDS011;32051;48.882;9.210;2024-03-07T04:59:10;43.97;;;29.33;;
46334;SDS011;32051;48.882;9.210;2024-03-07T05:01:37;53.53;;;29.95;;
46334;SDS011;32051;48.882;9.210;2024-03-07T05:04:03;50.65;;;29.83;;
46334;SDS011;32051;48.882;9.210;2024-03-07T05:06:29;47.70;;;27.95;;
46334;SDS011;32051;48.882;9.210;2024-03-07T05:08:59;56.10;;;29.90;;
46334;SDS011;32051;48.882;9.210;2024-03-07T05:11:27;50.38;;;30.15;;
46334;SDS011;32051;48.882;9.210;2024-03-07T05:13:53;55.92;;;30.15;;
46334;SDS011;32051;48.882;9.210;2024-03-07T05:16:19;54.78;;;29.65;;
46334;SDS011;32051;48.882;9.210;2024-03-07T05:18:45;50.30;;;30.08;;
46334;SDS011;32051;48.882;9.210;2024-03-07T05:21:12;55.40;;;28.27;;
46334;SDS011;32051;48.882;9.210;2024-03-07T05:23:56;50.88;;;29.73;;
46334;SDS011;32051;48.882;9.210;2024-03-07T05:26:23;55.17;;;30.35;;
46334;SDS011;32051;48.882;9.210;2024-03-07T05:28:49;47.78;;;28.08;;
46334;SDS011;32051;48.882;9.210;2024-03-07T05:31:16;49.97;;;29.85;;
46334;SDS011;32051;48.882;9.210;2024-03-07T05:33:43;51.35;;;28.60;;
46334;SDS011;32051;48.882;9.210;2024-03-07T05:36:09;54.22;;;28.23;;
46334;SDS011;32051;48.882;9.210;2024-03-07T05:38:42;50.65;;;29.85;;
46334;SDS011;32051;48.882;9.210;2024-03-07T05:41:11;46.60;;;29.67;;
46334;SDS011;32051;48.882;9.210;2024-03-07T05:43:38;41.83;;;25.60;;
46334;SDS011;32051;48.882;9.210;2024-03-07T05:46:04;46.55;;;26.85;;
46334;SDS011;32051;48.882;9.210;2024-03-07T05:48:35;53.58;;;29.33;;
46334;SDS011;32051;48.882;9.210;2024-03-07T05:51:01;54.33;;;27.33;;
46334;SDS011;32051;48.882;9.210;2024-03-07T05:53:27;43.92;;;26.00;;
46334;SDS011;32051;48.882;9.210;2024-03-07T05:55:54;48.10;;;25.90;;
46334;SDS011;32051;48.882;9.210;2024-03-07T05:58:20;50.88;;;27.13;;
46334;SDS011;32051;48.882;9.210;2024-03-07T06:00:46;46.80;;;26.15;;
46334;SDS011;32051;48.882;9.210;2024-03-07T06:03:20;48.78;;;26.45;;
46334;SDS011;32051;48.882;9.210;2024-03-07T06:05:47;51.08;;;26.75;;
46334;SDS011;32051;48.882;9.210;2024-03-07T06:08:16;42.00;;;24.33;;
46334;SDS011;32051;48.882;9.210;2024-03-07T06:10:43;49.78;;;25.38;;
46334;SDS011;32051;48.882;9.210;2024-03-07T06:13:13;46.45;;;26.73;;
46334;SDS011;32051;48.882;9.210;2024-03-07T06:15:42;42.95;;;24.98;;
46334;SDS011;32051;48.882;9.210;2024-03-07T06:18:08;44.25;;;26.73;;
46334;SDS011;32051;48.882;9.210;2024-03-07T06:20:36;41.03;;;23.98;;
46334;SDS011;32051;48.882;9.210;2024-03-07T06:23:02;40.00;;;23.30;;
46334;SDS011;32051;48.882;9.210;2024-03-07T06:25:32;40.08;;;25.35;;
46334;SDS011;32051;48.882;9.210;2024-03-07T06:28:01;42.35;;;25.10;;
46334;SDS011;32051;48.882;9.210;2024-03-07T06:30:38;45.10;;;25.23;;
46334;SDS011;32051;48.882;9.210;2024-03-07T06:33:10;39.80;;;24.98;;
46334;SDS011;32051;48.882;9.210;2024-03-07T06:35:38;41.28;;;24.85;;
46334;SDS011;32051;48.882;9.210;2024-03-07T06:38:05;35.72;;;23.52;;
46334;SDS011;32051;48.882;9.210;2024-03-07T06:40:32;44.58;;;26.10;;
46334;SDS011;32051;48.882;9.210;2024-03-07T06:42:58;46.05;;;24.20;;
46334;SDS011;32051;48.882;9.210;2024-03-07T06:45:25;56.67;;;25.48;;
46334;SDS011;32051;48.882;9.210;2024-03-07T06:47:51;38.83;;;24.98;;
46334;SDS011;32051;48.882;9.210;2024-03-07T06:50:20;40.78;;;22.70;;
46334;SDS011;32051;48.882;9.210;2024-03-07T06:52:47;42.35;;;25.83;;
46334;SDS011;32051;48.882;9.210;2024-03-07T06:55:16;45.53;;;24.80;;
46334;SDS011;32051;48.882;9.210;2024-03-07T06:57:43;44.22;;;24.58;;
46334;SDS011;32051;48.882;9.210;2024-03-07T07:00:13;45.25;;;24.92;;
46334;SDS011;32051;48.882;9.210;2024-03-07T07:02:45;39.25;;;25.90;;
46334;SDS011;32051;48.882;9.210;2024-03-07T07:05:11;39.55;;;24.73;;
46334;SDS011;32051;48.882;9.210;2024-03-07T07:07:37;41.30;;;24.50;;
46334;SDS011;32051;48.882;9.210;2024-03-07T07:10:04;33.88;;;22.02;;
46334;SDS011;32051;48.882;9.210;2024-03-07T07:12:37;35.63;;;22.42;;
46334;SDS011;32051;48.882;9.210;2024-03-07T07:15:03;31.80;;;20.30;;
46334;SDS011;32051;48.882;9.210;2024-03-07T07:17:30;28.88;;;21.48;;
46334;SDS011;32051;48.882;9.210;2024-03-07T07:19:57;31.38;;;20.48;;
46334;SDS011;32051;48.882;9.210;2024-03-07T07:22:24;29.77;;;21.05;;
46334;SDS011;32051;48.882;9.210;2024-03-07T07:24:50;35.47;;;20.73;;
46334;SDS011;32051;48.882;9.210;2024-03-07T07:27:16;35.05;;;22.27;;
46334;SDS011;32051;48.882;9.210;2024-03-07T07:29:43;35.88;;;21.90;;
46334;SDS011;32051;48.882;9.210;2024-03-07T07:32:10;27.23;;;18.25;;
46334;SDS011;32051;48.882;9.210;2024-03-07T07:34:37;27.27;;;19.45;;
46334;SDS011;32051;48.882;9.210;2024-03-07T07:37:04;29.70;;;21.08;;
46334;SDS011;32051;48.882;9.210;2024-03-07T07:39:30;25.20;;;17.90;;
46334;SDS011;32051;48.882;9.210;2024-03-07T07:41:56;30.60;;;19.55;;
46334;SDS011;32051;48.882;9.210;2024-03-07T07:44:22;29.98;;;20.98;;
46334;SDS011;32051;48.882;9.210;2024-03-07T07:46:48;27.15;;;19.92;;
46334;SDS011;32051;48.882;9.210;2024-03-07T07:49:14;29.73;;;19.15;;
46334;SDS011;32051;48.882;9.210;2024-03-07T07:51:41;24.92;;;18.70;;
46334;SDS011;32051;48.882;9.210;2024-03-07T07:54:07;25.35;;;18.77;;
46334;SDS011;32051;48.882;9.210;2024-03-07T07:56:34;26.33;;;19.23;;
46334;SDS011;32051;48.882;9.210;2024-03-07T07:59:00;27.10;;;18.27;;
46334;SDS011;32051;48.882;9.210;2024-03-07T08:01:28;23.73;;;17.08;;
46334;SDS011;32051;48.882;9.210;2024-03-07T08:03:54;29.73;;;18.92;;
46334;SDS011;32051;48.882;9.210;2024-03-07T08:06:19;26.45;;;16.88;;
46334;SDS011;32051;48.882;9.210;2024-03-07T08:08:45;22.27;;;16.83;;
46334;SDS011;32051;48.882;9.210;2024-03-07T08:11:11;25.60;;;16.63;;
46334;SDS011;32051;48.882;9.210;2024-03-07T08:13:39;22.73;;;17.05;;
46334;SDS011;32051;48.882;9.210;2024-03-07T08:16:05;31.95;;;17.33;;
46334;SDS011;32051;48.882;9.210;2024-03-07T08:18:32;21.38;;;17.55;;
46334;SDS011;32051;48.882;9.210;2024-03-07T08:20:58;21.88;;;17.52;;
46334;SDS011;32051;48.882;9.210;2024-03-07T08:23:23;25.63;;;17.17;;
46334;SDS011;32051;48.882;9.210;2024-03-07T08:25:54;24.63;;;17.35;;
46334;SDS011;32051;48.882;9.210;2024-03-07T08:28:20;28.23;;;18.67;;
46334;SDS011;32051;48.882;9.210;2024-03-07T08:30:46;27.00;;;17.70;;
46334;SDS011;32051;48.882;9.210;2024-03-07T08:33:11;25.25;;;17.70;;
46334;SDS011;32051;48.882;9.210;2024-03-07T08:35:38;24.25;;;16.83;;
46334;SDS011;32051;48.882;9.210;2024-03-07T08:38:04;23.25;;;16.63;;
46334;SDS011;32051;48.882;9.210;2024-03-07T08:40:30;23.10;;;17.13;;
46334;SDS011;32051;48.882;9.210;2024-03-07T08:42:57;21.73;;;17.42;;
46334;SDS011;32051;48.882;9.210;2024-03-07T08:45:24;25.65;;;17.33;;
46334;SDS011;32051;48.882;9.210;2024-03-07T08:47:52;25.48;;;18.38;;
46334;SDS011;32051;48.882;9.210;2024-03-07T08:50:22;32.65;;;16.92;;
46334;SDS011;32051;48.882;9.210;2024-03-07T08:52:49;19.55;;;16.02;;
46334;SDS011;32051;48.882;9.210;2024-03-07T08:55:16;25.88;;;16.83;;
46334;SDS011;32051;48.882;9.210;2024-03-07T08:57:45;36.35;;;16.95;;
46334;SDS011;32051;48.882;9.210;2024-03-07T09:00:12;28.35;;;17.60;;
46334;SDS011;32051;48.882;9.210;2024-03-07T09:02:49;21.83;;;16.20;;
46334;SDS011;32051;48.882;9.210;2024-03-07T09:05:25;25.75;;;16.67;;
46334;SDS011;32051;48.882;9.210;2024-03-07T09:07:52;22.92;;;17.50;;
46334;SDS011;32051;48.882;9.210;2024-03-07T09:10:18;22.23;;;16.88;;
46334;SDS011;32051;48.882;9.210;2024-03-07T09:12:45;26.23;;;18.20;;
46334;SDS011;32051;48.882;9.210;2024-03-07T09:15:14;25.35;;;17.60;;
46334;SDS011;32051;48.882;9.210;2024-03-07T09:17:42;24.52;;;15.82;;
46334;SDS011;32051;48.882;9.210;2024-03-07T09:20:08;22.90;;;16.50;;
46334;SDS011;32051;48.882;9.210;2024-03-07T09:22:42;23.65;;;16.95;;
46334;SDS011;32051;48.882;9.210;2024-03-07T09:25:19;25.15;;;17.92;;
46334;SDS011;32051;48.882;9.210;2024-03-07T09:27:45;30.08;;;18.88;;
46334;SDS011;32051;48.882;9.210;2024-03-07T09:30:11;22.48;;;17.23;;
46334;SDS011;32051;48.882;9.210;2024-03-07T09:32:38;39.55;;;19.02;;
46334;SDS011;32051;48.882;9.210;2024-03-07T09:35:05;25.42;;;18.30;;
46334;SDS011;32051;48.882;9.210;2024-03-07T09:37:32;24.50;;;18.40;;
46334;SDS011;32051;48.882;9.210;2024-03-07T09:39:58;25.02;;;18.60;;
46334;SDS011;32051;48.882;9.210;2024-03-07T09:42:25;29.88;;;19.23;;
46334;SDS011;32051;48.882;9.210;2024-03-07T09:44:53;29.60;;;20.55;;
46334;SDS011;32051;48.882;9.210;2024-03-07T09:47:21;29.20;;;17.83;;
46334;SDS011;32051;48.882;9.210;2024-03-07T09:49:47;29.30;;;18.80;;
46334;SDS011;32051;48.882;9.210;2024-03-07T09:52:13;25.58;;;17.60;;
46334;SDS011;32051;48.882;9.210;2024-03-07T09:54:40;27.88;;;17.92;;
46334;SDS011;32051;48.882;9.210;2024-03-07T09:57:06;24.98;;;19.08;;
46334;SDS011;32051;48.882;9.210;2024-03-07T09:59:34;24.27;;;17.50;;
46334;SDS011;32051;48.882;9.210;2024-03-07T10:02:05;25.58;;;18.77;;
46334;SDS011;32051;48.882;9.210;2024-03-07T10:04:42;27.88;;;18.80;;
46334;SDS011;32051;48.882;9.210;2024-03-07T10:07:13;28.85;;;19.25;;
46334;SDS011;32051;48.882;9.210;2024-03-07T10:09:40;29.15;;;18.77;;
46334;SDS011;32051;48.882;9.210;2024-03-07T10:12:07;33.92;;;20.48;;
46334;SDS011;32051;48.882;9.210;2024-03-07T10:15:02;27.95;;;19.00;;
46334;SDS011;32051;48.882;9.210;2024-03-07T10:17:24;29.73;;;19.33;;
46334;SDS011;32051;48.882;9.210;2024-03-07T10:19:54;34.28;;;18.27;;
46334;SDS011;32051;48.882;9.210;2024-03-07T10:22:21;27.40;;;20.13;;
46334;SDS011;32051;48.882;9.210;2024-03-07T10:24:54;25.73;;;19.25;;
46334;SDS011;32051;48.882;9.210;2024-03-07T10:27:21;35.30;;;19.65;;
46334;SDS011;32051;48.882;9.210;2024-03-07T10:29:48;27.17;;;19.25;;
46334;SDS011;32051;48.882;9.210;2024-03-07T10:32:19;29.77;;;20.98;;
46334;SDS011;32051;48.882;9.210;2024-03-07T10:34:46;39.10;;;21.10;;
46334;SDS011;32051;48.882;9.210;2024-03-07T10:37:13;32.47;;;21.00;;
46334;SDS011;32051;48.882;9.210;2024-03-07T10:39:45;34.95;;;20.75;;
46334;SDS011;32051;48.882;9.210;2024-03-07T10:42:15;35.35;;;20.80;;
46334;SDS011;32051;48.882;9.210;2024-03-07T10:44:43;35.70;;;20.88;;
46334;SDS011;32051;48.882;9.210;2024-03-07T10:47:19;39.60;;;20.35;;
46334;SDS011;32051;48.882;9.210;2024-03-07T10:55:19;31.52;;;21.35;;
46334;SDS011;32051;48.882;9.210;2024-03-07T11:01:01;30.73;;;20.25;;
46334;SDS011;32051;48.882;9.210;2024-03-07T11:03:34;36.03;;;21.88;;
46334;SDS011;32051;48.882;9.210;2024-03-07T11:06:00;35.28;;;20.42;;
46334;SDS011;32051;48.882;9.210;2024-03-07T11:08:34;32.40;;;21.85;;
46334;SDS011;32051;48.882;9.210;2024-03-07T11:11:03;33.90;;;21.58;;
46334;SDS011;32051;48.882;9.210;2024-03-07T11:13:29;30.90;;;20.95;;
46334;SDS011;32051;48.882;9.210;2024-03-07T11:15:56;33.72;;;20.65;;
46334;SDS011;32051;48.882;9.210;2024-03-07T11:18:25;28.40;;;19.88;;
46334;SDS011;32051;48.882;9.210;2024-03-07T11:20:51;36.80;;;21.23;;
46334;SDS011;32051;48.882;9.210;2024-03-07T11:23:29;30.88;;;20.52;;
46334;SDS011;32051;48.882;9.210;2024-03-07T11:26:02;26.48;;;19.38;;
46334;SDS011;32051;48.882;9.210;2024-03-07T11:28:38;31.42;;;19.70;;
46334;SDS011;32051;48.882;9.210;2024-03-07T11:33:40;34.97;;;20.35;;
46334;SDS011;32051;48.882;9.210;2024-03-07T11:36:09;28.48;;;20.50;;
46334;SDS011;32051;48.882;9.210;2024-03-07T11:38:45;31.00;;;19.75;;
46334;SDS011;32051;48.882;9.210;2024-03-07T11:41:13;32.72;;;20.83;;
46334;SDS011;32051;48.882;9.210;2024-03-07T11:43:42;33.67;;;20.77;;
46334;SDS011;32051;48.882;9.210;2024-03-07T11:46:08;33.80;;;19.38;;
46334;SDS011;32051;48.882;9.210;2024-03-07T11:48:39;35.67;;;20.33;;
46334;SDS011;32051;48.882;9.210;2024-03-07T11:51:12;42.10;;;21.10;;
46334;SDS011;32051;48.882;9.210;2024-03-07T11:53:39;32.78;;;21.48;;
46334;SDS011;32051;48.882;9.210;2024-03-07T11:56:05;29.70;;;21.17;;
46334;SDS011;32051;48.882;9.210;2024-03-07T11:58:41;23.55;;;18.63;;
46334;SDS011;32051;48.882;9.210;2024-03-07T12:01:17;23.80;;;19.10;;
46334;SDS011;32051;48.882;9.210;2024-03-07T12:03:44;31.67;;;17.77;;
46334;SDS011;32051;48.882;9.210;2024-03-07T12:06:10;32.22;;;21.08;;
46334;SDS011;32051;48.882;9.210;2024-03-07T12:08:42;31.02;;;19.85;;
46334;SDS011;32051;48.882;9.210;2024-03-07T12:11:08;27.63;;;18.02;;
46334;SDS011;32051;48.882;9.210;2024-03-07T12:13:37;29.20;;;18.48;;
46334;SDS011;32051;48.882;9.210;2024-03-07T12:16:03;32.72;;;20.23;;
46334;SDS011;32051;48.882;9.210;2024-03-07T12:18:33;25.42;;;18.90;;
46334;SDS011;32051;48.882;9.210;2024-03-07T12:21:01;32.60;;;20.52;;
46334;SDS011;32051;48.882;9.210;2024-03-07T12:23:31;38.08;;;20.70;;
46334;SDS011;32051;48.882;9.210;2024-03-07T12:25:59;29.42;;;20.13;;
46334;SDS011;32051;48.882;9.210;2024-03-07T12:28:28;32.15;;;20.73;;
46334;SDS011;32051;48.882;9.210;2024-03-07T12:30:58;29.80;;;21.27;;
46334;SDS011;32051;48.882;9.210;2024-03-07T12:33:27;26.23;;;19.80;;
46334;SDS011;32051;48.882;9.210;2024-03-07T12:35:54;26.67;;;19.52;;
46334;SDS011;32051;48.882;9.210;2024-03-07T12:38:31;30.63;;;20.08;;
46334;SDS011;32051;48.882;9.210;2024-03-07T12:41:06;30.90;;;19.77;;
46334;SDS011;32051;48.882;9.210;2024-03-07T12:43:38;29.52;;;19.70;;
46334;SDS011;32051;48.882;9.210;2024-03-07T12:46:07;29.88;;;20.25;;
46334;SDS011;32051;48.882;9.210;2024-03-07T12:48:37;30.15;;;20.05;;
46334;SDS011;32051;48.882;9.210;2024-03-07T12:51:03;33.47;;;18.40;;
46334;SDS011;32051;48.882;9.210;2024-03-07T12:53:30;23.45;;;18.10;;
46334;SDS011;32051;48.882;9.210;2024-03-07T12:55:56;26.30;;;18.88;;
46334;SDS011;32051;48.882;9.210;2024-03-07T12:58:22;31.65;;;20.40;;
46334;SDS011;32051;48.882;9.210;2024-03-07T13:00:51;24.40;;;18.63;;
46334;SDS011;32051;48.882;9.210;2024-03-07T13:03:17;26.48;;;19.08;;
46334;SDS011;32051;48.882;9.210;2024-03-07T13:05:43;25.70;;;17.05;;
46334;SDS011;32051;48.882;9.210;2024-03-07T13:08:09;25.67;;;19.42;;
46334;SDS011;32051;48.882;9.210;2024-03-07T13:10:43;22.40;;;17.35;;
46334;SDS011;32051;48.882;9.210;2024-03-07T13:15:39;22.83;;;15.82;;
46334;SDS011;32051;48.882;9.210;2024-03-07T13:18:07;28.77;;;18.73;;
46334;SDS011;32051;48.882;9.210;2024-03-07T13:20:34;25.20;;;18.13;;
46334;SDS011;32051;48.882;9.210;2024-03-07T13:23:01;27.92;;;18.08;;
46334;SDS011;32051;48.882;9.210;2024-03-07T13:25:28;31.70;;;18.83;;
46334;SDS011;32051;48.882;9.210;2024-03-07T13:30:24;30.27;;;19.58;;
46334;SDS011;32051;48.882;9.210;2024-03-07T13:32:54;28.27;;;19.98;;
46334;SDS011;32051;48.882;9.210;2024-03-07T13:35:20;33.85;;;19.25;;
46334;SDS011;32051;48.882;9.210;2024-03-07T13:37:47;28.67;;;20.27;;
46334;SDS011;32051;48.882;9.210;2024-03-07T13:40:13;32.50;;;20.48;;
46334;SDS011;32051;48.882;9.210;2024-03-07T13:42:48;26.27;;;19.35;;
46334;SDS011;32051;48.882;9.210;2024-03-07T13:45:17;28.77;;;21.00;;
46334;SDS011;32051;48.882;9.210;2024-03-07T13:47:45;29.17;;;19.20;;
46334;SDS011;32051;48.882;9.210;2024-03-07T13:50:14;28.05;;;20.27;;
46334;SDS011;32051;48.882;9.210;2024-03-07T13:52:41;31.17;;;21.75;;
46334;SDS011;32051;48.882;9.210;2024-03-07T13:55:19;29.20;;;19.80;;
46334;SDS011;32051;48.882;9.210;2024-03-07T13:57:49;27.88;;;19.38;;
46334;SDS011;32051;48.882;9.210;2024-03-07T14:00:35;32.03;;;20.83;;
46334;SDS011;32051;48.882;9.210;2024-03-07T14:03:48;28.38;;;20.00;;
46334;SDS011;32051;48.882;9.210;2024-03-07T14:07:03;28.27;;;20.35;;
46334;SDS011;32051;48.882;9.210;2024-03-07T14:12:16;35.80;;;20.05;;
46334;SDS011;32051;48.882;9.210;2024-03-07T14:29:48;31.35;;;20.70;;
46334;SDS011;32051;48.882;9.210;2024-03-07T14:32:30;31.08;;;19.63;;
46334;SDS011;32051;48.882;9.210;2024-03-07T14:35:12;32.03;;;22.42;;
46334;SDS011;32051;48.882;9.210;2024-03-07T14:37:55;32.23;;;20.60;;
46334;SDS011;32051;48.882;9.210;2024-03-07T14:40:26;43.25;;;21.60;;
46334;SDS011;32051;48.882;9.210;2024-03-07T14:42:54;35.47;;;19.98;;
46334;SDS011;32051;48.882;9.210;2024-03-07T14:45:23;32.25;;;20.70;;
46334;SDS011;32051;48.882;9.210;2024-03-07T14:47:53;27.55;;;19.25;;
46334;SDS011;32051;48.882;9.210;2024-03-07T14:50:19;30.42;;;20.90;;
46334;SDS011;32051;48.882;9.210;2024-03-07T14:52:47;29.98;;;20.50;;
46334;SDS011;32051;48.882;9.210;2024-03-07T14:55:13;32.67;;;19.98;;
46334;SDS011;32051;48.882;9.210;2024-03-07T14:57:40;28.73;;;18.77;;
46334;SDS011;32051;48.882;9.210;2024-03-07T15:00:10;36.47;;;20.60;;
46334;SDS011;32051;48.882;9.210;2024-03-07T15:02:52;27.58;;;18.30;;